Time;durP1;ratioP1;P1;durP2;ratioP2;P2;SDS_P1;SDS_P2;PMS_P1;PMS_P2;Temp;Humidity;BMP_temperature;BMP_pressure;BME280_temperature;BME280_humidity;BME280_pressure;Samples;Min_cycle;Max_cycle;Signal;HPM_P1;HPM_P2
2023/01/29 00:02:14;;;;;;;9.90;4.47;;;4.60;99.90;;;;;;4997713;28;20332;-66
2023/01/29 00:04:40;;;;;;;;;;;4.60;99.90;;;;;;5004707;28;20498;-66
2023/01/29 00:07:06;;;;;;;18.00;7.93;;;4.60;99.90;;;;;;5006793;28;19965;-66
2023/01/29 00:09:31;;;;;;;10.17;5.63;;;4.60;99.90;;;;;;5005948;28;20173;-67
2023/01/29 00:11:57;;;;;;;10.63;5.83;;;4.70;99.90;;;;;;5005871;28;20088;-66
2023/01/29 00:14:22;;;;;;;9.23;5.33;;;4.70;99.90;;;;;;4997927;28;20273;-67
2023/01/29 00:16:48;;;;;;;12.17;6.87;;;4.70;99.90;;;;;;5005883;28;20045;-67
2023/01/29 00:19:14;;;;;;;9.07;5.13;;;4.70;99.90;;;;;;5008137;28;20514;-67
2023/01/29 00:21:39;;;;;;;10.50;5.10;;;4.80;99.90;;;;;;4993658;28;20128;-67
2023/01/29 00:24:05;;;;;;;8.70;5.80;;;4.80;99.90;;;;;;5004457;28;20472;-67
2023/01/29 00:26:31;;;;;;;9.60;4.70;;;4.80;99.90;;;;;;5011724;28;20049;-67
2023/01/29 00:28:59;;;;;;;10.67;4.50;;;4.80;99.90;;;;;;5007731;28;20137;-66
2023/01/29 00:31:25;;;;;;;13.80;4.57;;;4.80;99.90;;;;;;5006924;28;20052;-66
2023/01/29 00:33:51;;;;;;;7.90;4.30;;;4.80;99.90;;;;;;5009540;28;20038;-65
2023/01/29 00:36:18;;;;;;;8.90;4.47;;;4.80;99.90;;;;;;5004930;28;20799;-66
2023/01/29 00:38:53;;;;;;;9.95;5.40;;;4.80;99.90;;;;;;5003638;28;20386;-66
2023/01/29 00:46:49;;;;;;;7.45;3.80;;;4.90;99.90;;;;;;4996870;28;20041;-65
2023/01/29 00:49:15;;;;;;;8.50;3.73;;;4.90;99.90;;;;;;5010234;28;20029;-65
2023/01/29 00:51:40;;;;;;;7.13;3.73;;;4.90;99.90;;;;;;5016738;28;20333;-67
2023/01/29 00:54:06;;;;;;;5.80;2.93;;;4.80;99.90;;;;;;5008930;28;20385;-65
2023/01/29 00:56:34;;;;;;;7.27;3.37;;;4.90;99.90;;;;;;5009965;28;20052;-65
2023/01/29 00:59:00;;;;;;;7.35;3.50;;;4.90;99.90;;;;;;5008600;28;20491;-66
2023/01/29 01:04:11;;;;;;;10.52;4.65;;;4.80;99.90;;;;;;5001460;28;20073;-66
2023/01/29 01:06:38;;;;;;;7.70;3.55;;;4.80;99.90;;;;;;5010228;28;20495;-66
2023/01/29 01:11:50;;;;;;;8.18;3.60;;;4.90;99.90;;;;;;5008647;28;20046;-66
2023/01/29 01:14:17;;;;;;;9.40;4.28;;;4.80;99.90;;;;;;5008327;28;20046;-66
2023/01/29 01:16:45;;;;;;;8.15;3.78;;;4.90;99.90;;;;;;5009747;28;20131;-65
2023/01/29 01:19:11;;;;;;;9.13;4.47;;;4.90;99.90;;;;;;4998475;28;20046;-66
2023/01/29 01:21:37;;;;;;;9.82;4.43;;;4.90;99.90;;;;;;5010006;28;20141;-65
2023/01/29 01:24:04;;;;;;;8.87;4.40;;;4.90;99.90;;;;;;5008716;28;20038;-66
2023/01/29 01:26:33;;;;;;;8.38;3.85;;;4.80;99.90;;;;;;5008928;28;20050;-66
2023/01/29 01:28:59;;;;;;;10.15;4.38;;;4.90;99.90;;;;;;5009882;28;20033;-65
2023/01/29 01:31:25;;;;;;;9.23;3.90;;;4.80;99.90;;;;;;5066979;22;20036;-69
2023/01/29 01:33:53;;;;;;;9.80;4.10;;;4.80;99.90;;;;;;5040460;28;20375;-69
2023/01/29 01:36:18;;;;;;;8.10;3.85;;;4.80;99.90;;;;;;5057961;28;20089;-69
2023/01/29 01:38:44;;;;;;;7.80;3.87;;;4.90;99.90;;;;;;5065424;28;20120;-69
2023/01/29 01:41:21;;;;;;;6.83;3.80;;;4.90;99.90;;;;;;5065599;28;20170;-69
2023/01/29 01:43:50;;;;;;;;;;;4.80;99.90;;;;;;5055811;28;20094;-70
2023/01/29 01:46:16;;;;;;;11.52;4.60;;;4.90;99.90;;;;;;5051948;28;19931;-69
2023/01/29 01:48:43;;;;;;;8.90;4.15;;;4.90;99.90;;;;;;5053514;28;20040;-69
2023/01/29 01:51:09;;;;;;;8.77;4.18;;;4.90;99.90;;;;;;5056708;28;20044;-69
2023/01/29 01:53:49;;;;;;;9.53;4.57;;;4.80;99.90;;;;;;5052125;28;20352;-69
2023/01/29 01:56:21;;;;;;;8.15;4.53;;;4.80;99.90;;;;;;5060645;28;20119;-69
2023/01/29 01:58:50;;;;;;;9.18;5.55;;;4.80;99.90;;;;;;5053053;28;20300;-69
2023/01/29 02:01:17;;;;;;;11.88;6.10;;;4.90;99.90;;;;;;5055105;28;20055;-69
2023/01/29 02:09:52;;;;;;;14.13;6.00;;;4.90;99.90;;;;;;5055051;28;20036;-69
2023/01/29 02:12:19;;;;;;;9.68;5.45;;;4.90;99.90;;;;;;5065682;28;20033;-69
2023/01/29 02:14:45;;;;;;;12.23;6.53;;;5.00;99.90;;;;;;5059348;28;20064;-73
2023/01/29 02:17:14;;;;;;;9.52;6.05;;;4.90;99.90;;;;;;5057938;28;20544;-69
2023/01/29 02:20:04;;;;;;;10.77;5.22;;;5.00;99.90;;;;;;5062030;28;20075;-69
2023/01/29 02:23:08;;;;;;;9.95;4.85;;;5.00;99.90;;;;;;5054177;28;20486;-69
2023/01/29 02:25:58;;;;;;;11.73;5.53;;;4.90;99.90;;;;;;5062086;28;20041;-70
2023/01/29 02:28:29;;;;;;;11.23;5.38;;;5.00;99.90;;;;;;5056936;28;21830;-69
2023/01/29 02:31:04;;;;;;;9.95;5.40;;;5.00;99.90;;;;;;5056355;28;20123;-70
2023/01/29 02:33:44;;;;;;;10.55;5.38;;;5.00;99.90;;;;;;5061027;28;20045;-69
2023/01/29 02:36:34;;;;;;;11.75;5.15;;;5.00;99.90;;;;;;5060344;28;20484;-69
2023/01/29 02:39:13;;;;;;;11.73;6.00;;;5.00;99.90;;;;;;5053590;28;20063;-70
2023/01/29 02:42:14;;;;;;;10.52;4.88;;;4.90;99.90;;;;;;5057556;28;20041;-70
2023/01/29 02:44:45;;;;;;;9.35;5.45;;;4.90;99.90;;;;;;5046262;28;20045;-69
2023/01/29 02:47:20;;;;;;;9.70;5.22;;;5.00;99.90;;;;;;5054329;28;20033;-69
2023/01/29 02:49:48;;;;;;;11.68;6.30;;;4.90;99.90;;;;;;5046721;28;20102;-69
2023/01/29 02:52:18;;;;;;;11.73;6.03;;;4.90;99.90;;;;;;5059980;28;20111;-69
2023/01/29 02:54:51;;;;;;;10.18;5.50;;;4.90;99.90;;;;;;5054613;28;20539;-70
2023/01/29 02:57:24;;;;;;;13.77;6.70;;;4.90;99.90;;;;;;5052281;28;20051;-69
2023/01/29 03:00:03;;;;;;;11.70;6.30;;;4.90;99.90;;;;;;5039116;28;20105;-69
2023/01/29 03:02:32;;;;;;;10.27;5.57;;;4.90;99.90;;;;;;5057583;28;20097;-69
2023/01/29 03:05:02;;;;;;;11.82;5.85;;;4.90;99.90;;;;;;5062500;28;20124;-69
2023/01/29 03:07:45;;;;;;;10.07;5.57;;;4.90;99.90;;;;;;5065112;28;20043;-69
2023/01/29 03:10:16;;;;;;;11.57;6.75;;;4.90;99.90;;;;;;5055777;28;20552;-69
2023/01/29 03:12:45;;;;;;;14.10;6.97;;;4.90;99.90;;;;;;5055569;28;20542;-69
2023/01/29 03:15:17;;;;;;;13.43;6.97;;;4.90;99.90;;;;;;5058674;28;20143;-71
2023/01/29 03:18:10;;;;;;;12.57;6.82;;;4.90;99.90;;;;;;5051714;28;20052;-71
2023/01/29 03:20:49;;;;;;;12.32;6.78;;;4.90;99.90;;;;;;5061521;28;20051;-71
2023/01/29 03:23:46;;;;;;;15.43;7.13;;;4.90;99.90;;;;;;5035732;28;20076;-71
2023/01/29 03:34:33;;;;;;;14.13;6.82;;;4.90;99.90;;;;;;5054100;28;20497;-70
2023/01/29 03:37:08;;;;;;;17.55;8.02;;;4.90;99.90;;;;;;5058450;28;20044;-71
2023/01/29 03:39:35;;;;;;;14.32;7.07;;;4.90;99.90;;;;;;5056841;28;20043;-70
2023/01/29 03:42:25;;;;;;;14.18;7.50;;;4.90;99.90;;;;;;5061236;28;20183;-70
2023/01/29 03:45:00;;;;;;;16.23;8.05;;;4.90;99.90;;;;;;5063536;28;20470;-70
2023/01/29 03:47:49;;;;;;;13.75;7.53;;;4.90;99.90;;;;;;5057061;28;20039;-70
2023/01/29 03:50:33;;;;;;;15.90;7.15;;;4.90;99.90;;;;;;5046909;28;20049;-70
2023/01/29 03:53:22;;;;;;;14.38;7.60;;;4.90;99.90;;;;;;5053347;28;20029;-70
2023/01/29 03:56:12;;;;;;;19.92;9.07;;;4.90;99.90;;;;;;5046095;28;20048;-70
2023/01/29 03:58:44;;;;;;;11.90;6.65;;;4.90;99.90;;;;;;5053044;28;20048;-70
2023/01/29 04:01:19;;;;;;;13.73;7.75;;;4.90;99.90;;;;;;5054758;28;20458;-70
2023/01/29 04:03:52;;;;;;;16.52;7.72;;;4.90;99.90;;;;;;5053000;28;20048;-70
2023/01/29 04:06:26;;;;;;;14.07;7.97;;;4.90;99.90;;;;;;5063224;28;20116;-70
2023/01/29 04:09:16;;;;;;;14.98;7.70;;;4.90;99.90;;;;;;5053366;28;20506;-70
2023/01/29 04:11:48;;;;;;;15.05;8.07;;;5.00;99.90;;;;;;5062706;28;20052;-71
2023/01/29 04:14:14;;;;;;;13.52;7.38;;;5.00;99.90;;;;;;5066560;28;20512;-70
2023/01/29 04:16:50;;;;;;;15.27;8.03;;;5.00;99.90;;;;;;5057395;28;20048;-70
2023/01/29 04:19:16;;;;;;;13.27;7.67;;;5.00;99.90;;;;;;5066211;28;20048;-70
2023/01/29 04:21:42;;;;;;;13.30;6.97;;;5.00;99.90;;;;;;5063662;28;20277;-70
2023/01/29 04:24:10;;;;;;;14.33;6.90;;;5.00;99.90;;;;;;5068596;28;20056;-70
2023/01/29 04:26:44;;;;;;;12.40;6.38;;;5.00;99.90;;;;;;5060096;28;20125;-70
2023/01/29 04:29:15;;;;;;;14.70;6.80;;;5.00;99.90;;;;;;5065658;28;20358;-70
2023/01/29 04:31:50;;;;;;;13.18;7.32;;;5.00;99.90;;;;;;5064777;28;20070;-70
2023/01/29 04:34:35;;;;;;;14.05;7.20;;;5.00;99.90;;;;;;5066684;28;20049;-70
2023/01/29 04:37:29;;;;;;;11.60;6.68;;;5.00;99.90;;;;;;5060419;28;20041;-70
2023/01/29 04:40:10;;;;;;;14.57;7.05;;;5.00;99.90;;;;;;5061022;28;20227;-70
2023/01/29 04:42:46;;;;;;;12.38;6.28;;;5.00;99.90;;;;;;5060782;28;20044;-70
2023/01/29 04:46:00;;;;;;;16.20;7.00;;;5.00;99.90;;;;;;5062173;28;20044;-70
2023/01/29 04:48:58;;;;;;;15.93;7.13;;;5.00;99.90;;;;;;5055240;28;20122;-70
2023/01/29 04:51:45;;;;;;;11.70;6.20;;;5.00;99.90;;;;;;4994357;28;20084;-70
2023/01/29 04:54:35;;;;;;;13.27;6.72;;;5.00;99.90;;;;;;5062176;28;20395;-70
2023/01/29 04:57:15;;;;;;;11.73;6.60;;;5.00;99.90;;;;;;5064165;28;20040;-70
2023/01/29 04:59:56;;;;;;;13.48;7.78;;;5.00;99.90;;;;;;5054573;28;20498;-70
2023/01/29 05:02:24;;;;;;;11.85;6.03;;;5.00;99.90;;;;;;5060380;28;20048;-70
2023/01/29 05:04:51;;;;;;;15.65;6.32;;;5.00;99.90;;;;;;5052727;28;20395;-70
2023/01/29 05:07:20;;;;;;;12.27;6.85;;;5.00;99.90;;;;;;5061253;28;20498;-70
2023/01/29 05:09:47;;;;;;;13.05;6.38;;;5.00;99.90;;;;;;5063512;28;20071;-70
2023/01/29 05:12:16;;;;;;;12.23;6.85;;;5.00;99.90;;;;;;5066409;28;20364;-70
2023/01/29 05:14:44;;;;;;;14.13;7.15;;;5.00;99.90;;;;;;5060382;28;20053;-71
2023/01/29 05:17:15;;;;;;;14.38;7.43;;;5.00;99.90;;;;;;5066529;28;20044;-71
2023/01/29 05:19:41;;;;;;;12.70;7.03;;;5.00;99.90;;;;;;5065269;28;20077;-69
2023/01/29 05:22:10;;;;;;;17.05;8.07;;;5.00;99.90;;;;;;5065912;28;20358;-69
2023/01/29 05:24:36;;;;;;;15.50;7.68;;;5.00;99.90;;;;;;5058372;28;20053;-69
2023/01/29 05:29:47;;;;;;;12.90;6.78;;;5.00;99.90;;;;;;5060092;28;20187;-69
2023/01/29 05:32:14;;;;;;;18.17;7.60;;;5.10;99.90;;;;;;5061116;28;20106;-69
2023/01/29 05:34:40;;;;;;;12.73;7.10;;;5.10;99.90;;;;;;5059889;28;20084;-69
2023/01/29 05:37:06;;;;;;;15.37;8.00;;;5.10;99.90;;;;;;5067184;28;20137;-69
2023/01/29 05:39:31;;;;;;;15.17;7.43;;;5.10;99.90;;;;;;5059963;28;20044;-70
2023/01/29 05:41:58;;;;;;;13.82;6.75;;;5.10;99.90;;;;;;5054447;28;20173;-69
2023/01/29 05:44:23;;;;;;;14.13;6.70;;;5.10;99.90;;;;;;5061706;28;20056;-69
2023/01/29 05:46:50;;;;;;;14.60;7.37;;;5.10;99.90;;;;;;5064564;28;20081;-69
2023/01/29 05:49:17;;;;;;;14.27;6.57;;;5.00;99.90;;;;;;5063935;28;20233;-69
2023/01/29 05:51:42;;;;;;;17.25;6.90;;;5.10;99.90;;;;;;5053207;28;20064;-69
2023/01/29 05:54:11;;;;;;;14.03;7.50;;;5.10;99.90;;;;;;5058532;28;20340;-69
2023/01/29 05:56:38;;;;;;;16.17;8.30;;;5.10;99.90;;;;;;5061017;28;20526;-69
2023/01/29 05:59:03;;;;;;;;;;;5.10;99.90;;;;;;5029675;28;20452;-69
2023/01/29 06:01:29;;;;;;;18.08;8.77;;;5.10;99.90;;;;;;5055692;28;19927;-69
2023/01/29 06:03:55;;;;;;;15.07;9.30;;;5.00;99.90;;;;;;5059733;28;20062;-70
2023/01/29 06:06:20;;;;;;;19.13;8.93;;;5.00;99.90;;;;;;5061351;28;20374;-69
2023/01/29 06:08:47;;;;;;;18.57;9.40;;;5.00;99.90;;;;;;5063883;28;20067;-69
2023/01/29 06:11:17;;;;;;;19.00;10.05;;;5.00;99.90;;;;;;5067348;28;20262;-69
2023/01/29 06:13:43;;;;;;;17.75;9.32;;;5.00;99.90;;;;;;5062453;28;20048;-69
2023/01/29 06:16:11;;;;;;;21.75;10.60;;;5.00;99.90;;;;;;5065159;28;20405;-69
2023/01/29 06:18:37;;;;;;;24.38;10.23;;;5.00;99.90;;;;;;5049805;28;20048;-69
2023/01/29 06:21:05;;;;;;;19.42;9.93;;;5.00;99.90;;;;;;5057034;28;20037;-69
2023/01/29 06:23:31;;;;;;;20.95;10.80;;;5.00;99.90;;;;;;5051431;28;20118;-69
2023/01/29 06:26:05;;;;;;;21.33;10.77;;;5.00;99.90;;;;;;5059485;28;20474;-69
2023/01/29 06:28:30;;;;;;;21.80;10.85;;;5.00;99.90;;;;;;5058801;28;20452;-69
2023/01/29 06:30:58;;;;;;;21.97;11.87;;;5.00;99.90;;;;;;5060053;28;20029;-69
2023/01/29 06:33:24;;;;;;;19.67;9.68;;;4.90;99.90;;;;;;5057039;28;20043;-69
2023/01/29 06:35:55;;;;;;;24.50;12.23;;;4.90;99.90;;;;;;5054452;28;20475;-69
2023/01/29 06:38:21;;;;;;;21.88;11.50;;;4.90;99.90;;;;;;5059812;28;20048;-67
2023/01/29 06:40:46;;;;;;;21.17;12.03;;;4.90;99.90;;;;;;5060057;28;20140;-68
2023/01/29 06:43:12;;;;;;;23.10;11.27;;;4.90;99.90;;;;;;5056110;28;20037;-67
2023/01/29 06:45:38;;;;;;;21.77;11.37;;;4.80;99.90;;;;;;5062014;28;20044;-68
2023/01/29 06:48:03;;;;;;;22.93;12.13;;;4.90;99.90;;;;;;5061990;28;20145;-68
2023/01/29 06:50:29;;;;;;;21.73;11.80;;;4.90;99.90;;;;;;5050273;28;20129;-67
2023/01/29 06:52:55;;;;;;;21.80;12.73;;;4.80;99.90;;;;;;5042307;28;20303;-68
2023/01/29 06:55:20;;;;;;;23.73;12.40;;;4.80;99.90;;;;;;5059728;28;20039;-68
2023/01/29 06:57:46;;;;;;;25.90;13.20;;;4.80;99.90;;;;;;5062933;28;20587;-67
2023/01/29 07:00:12;;;;;;;22.57;11.37;;;4.80;99.90;;;;;;5049790;28;20049;-67
2023/01/29 07:02:38;;;;;;;28.55;13.52;;;4.80;99.90;;;;;;5058793;28;20467;-67
2023/01/29 07:05:04;;;;;;;23.07;13.07;;;4.80;99.90;;;;;;5065842;28;20048;-67
2023/01/29 07:07:29;;;;;;;24.25;12.45;;;4.70;99.90;;;;;;5058545;28;20043;-67
2023/01/29 07:09:55;;;;;;;29.33;12.77;;;4.70;99.90;;;;;;5059005;28;20044;-67
2023/01/29 07:12:21;;;;;;;23.50;11.93;;;4.70;99.90;;;;;;5051854;28;20089;-68
2023/01/29 07:14:46;;;;;;;22.93;11.47;;;4.70;99.90;;;;;;5064538;28;20076;-67
2023/01/29 07:17:12;;;;;;;23.80;11.93;;;4.70;99.90;;;;;;5057025;28;20047;-67
2023/01/29 07:19:37;;;;;;;19.80;11.53;;;4.70;99.90;;;;;;5036396;28;20044;-67
2023/01/29 07:22:04;;;;;;;25.37;12.97;;;4.70;99.90;;;;;;5060805;28;20374;-67
2023/01/29 07:24:30;;;;;;;;;;;4.70;99.90;;;;;;5048125;28;20057;-67
2023/01/29 07:26:55;;;;;;;21.25;11.40;;;4.70;99.90;;;;;;5058631;28;20660;-68
2023/01/29 07:29:21;;;;;;;33.67;11.83;;;4.70;99.90;;;;;;5049350;28;20083;-67
2023/01/29 07:31:47;;;;;;;26.50;13.27;;;4.70;99.90;;;;;;5107840;22;20088;-68
2023/01/29 07:34:12;;;;;;;23.63;12.23;;;4.70;99.90;;;;;;5100373;28;20035;-68
2023/01/29 07:36:38;;;;;;;29.87;12.47;;;4.70;99.90;;;;;;5101446;28;20061;-69
2023/01/29 07:39:03;;;;;;;23.87;13.90;;;4.70;99.90;;;;;;5101234;28;20222;-69
2023/01/29 07:41:29;;;;;;;24.60;12.10;;;4.70;99.90;;;;;;5095855;28;20036;-69
2023/01/29 07:43:55;;;;;;;25.43;11.77;;;4.70;99.90;;;;;;5101110;28;20644;-69
2023/01/29 07:46:20;;;;;;;24.40;11.87;;;4.70;99.90;;;;;;5103652;28;20031;-69
2023/01/29 07:48:46;;;;;;;21.93;12.33;;;4.70;99.90;;;;;;5103594;28;20039;-69
2023/01/29 07:51:11;;;;;;;22.00;12.83;;;4.70;99.90;;;;;;5093303;28;20092;-69
2023/01/29 07:53:37;;;;;;;27.13;13.77;;;4.70;99.90;;;;;;5092466;28;20035;-69
2023/01/29 07:56:03;;;;;;;25.00;13.23;;;4.60;99.90;;;;;;5099491;28;20048;-69
2023/01/29 07:58:29;;;;;;;23.98;13.38;;;4.60;99.90;;;;;;5095249;28;20057;-69
2023/01/29 08:00:54;;;;;;;28.07;13.73;;;4.60;99.90;;;;;;5095015;28;20048;-69
2023/01/29 08:03:20;;;;;;;26.37;13.47;;;4.60;99.90;;;;;;5079444;28;20035;-69
2023/01/29 08:05:46;;;;;;;29.63;13.90;;;4.60;99.90;;;;;;5095156;28;20044;-69
2023/01/29 08:08:12;;;;;;;35.10;13.95;;;4.60;99.90;;;;;;5080268;28;20130;-69
2023/01/29 08:10:39;;;;;;;22.58;11.82;;;4.50;99.90;;;;;;5105119;28;20152;-69
2023/01/29 08:13:06;;;;;;;27.08;12.95;;;4.60;99.90;;;;;;5096598;28;20039;-69
2023/01/29 08:15:32;;;;;;;36.30;15.48;;;4.60;99.90;;;;;;5093672;28;20390;-69
2023/01/29 08:17:57;;;;;;;31.40;14.33;;;4.60;99.90;;;;;;5099728;28;20098;-69
2023/01/29 08:20:23;;;;;;;30.23;15.30;;;4.60;99.90;;;;;;5104127;28;20042;-69
2023/01/29 08:22:49;;;;;;;24.20;13.20;;;4.60;99.90;;;;;;5093283;28;20082;-69
2023/01/29 08:25:15;;;;;;;23.40;12.77;;;4.60;99.90;;;;;;5101838;28;20036;-69
2023/01/29 08:27:41;;;;;;;23.10;11.55;;;4.60;99.90;;;;;;5101321;28;20061;-69
2023/01/29 08:30:08;;;;;;;26.63;13.85;;;4.60;99.90;;;;;;5101224;28;20051;-69
2023/01/29 08:32:34;;;;;;;27.25;14.07;;;4.70;99.90;;;;;;5091534;28;20036;-68
2023/01/29 08:35:00;;;;;;;26.97;13.83;;;4.70;99.90;;;;;;5092919;28;20099;-68
2023/01/29 08:37:26;;;;;;;25.17;13.33;;;4.70;99.90;;;;;;5097280;28;20166;-68
2023/01/29 08:39:51;;;;;;;31.77;14.37;;;4.70;99.90;;;;;;5093442;28;20082;-68
2023/01/29 08:42:17;;;;;;;25.23;13.63;;;4.70;99.90;;;;;;5090120;28;20047;-68
2023/01/29 08:44:42;;;;;;;25.10;13.10;;;4.70;99.90;;;;;;5097166;28;20048;-68
2023/01/29 08:47:08;;;;;;;25.07;12.80;;;4.80;99.90;;;;;;5097626;28;20036;-68
2023/01/29 08:49:33;;;;;;;27.50;13.40;;;4.70;99.90;;;;;;5088584;28;20354;-68
2023/01/29 08:51:59;;;;;;;27.53;13.60;;;4.70;99.90;;;;;;5090399;28;20335;-69
2023/01/29 08:54:25;;;;;;;25.13;13.20;;;4.80;99.90;;;;;;5095756;28;20043;-68
2023/01/29 08:56:51;;;;;;;34.13;14.10;;;4.80;99.90;;;;;;5102838;28;20377;-68
2023/01/29 08:59:17;;;;;;;29.73;14.30;;;4.80;99.90;;;;;;5100430;28;20040;-68
2023/01/29 09:01:42;;;;;;;28.87;13.47;;;4.80;99.90;;;;;;5104408;28;20130;-69
2023/01/29 09:04:08;;;;;;;30.33;13.93;;;4.80;99.90;;;;;;5106077;28;20533;-69
2023/01/29 09:06:33;;;;;;;24.20;13.50;;;4.80;99.90;;;;;;5105055;28;20070;-69
2023/01/29 09:08:59;;;;;;;27.77;14.00;;;4.90;99.90;;;;;;5093086;28;20044;-69
2023/01/29 09:11:25;;;;;;;27.47;12.97;;;4.90;99.90;;;;;;5107791;27;20031;-69
2023/01/29 09:13:51;;;;;;;31.85;15.43;;;4.90;99.90;;;;;;5100825;28;20114;-69
2023/01/29 09:16:16;;;;;;;29.13;14.73;;;4.90;99.90;;;;;;5100077;28;20048;-69
2023/01/29 09:18:42;;;;;;;27.73;14.97;;;4.90;99.90;;;;;;5091888;28;20516;-69
2023/01/29 09:21:07;;;;;;;27.27;14.07;;;4.90;99.90;;;;;;5100731;28;20560;-69
2023/01/29 09:23:33;;;;;;;26.93;13.43;;;4.90;99.90;;;;;;5095202;28;20078;-69
2023/01/29 09:25:59;;;;;;;29.30;15.27;;;4.90;99.90;;;;;;5097202;28;20036;-69
2023/01/29 09:28:25;;;;;;;29.53;13.87;;;5.00;99.90;;;;;;5104000;28;20441;-68
2023/01/29 09:30:51;;;;;;;28.15;14.60;;;5.00;99.90;;;;;;5091948;28;20032;-69
2023/01/29 09:33:17;;;;;;;27.77;13.98;;;5.00;99.90;;;;;;5097966;28;20047;-69
2023/01/29 09:35:45;;;;;;;29.02;14.20;;;5.00;99.90;;;;;;5102172;28;20076;-68
2023/01/29 09:38:11;;;;;;;28.58;14.68;;;5.00;99.90;;;;;;5100164;28;20079;-69
2023/01/29 09:40:57;;;;;;;32.15;13.95;;;5.00;99.90;;;;;;5105686;28;20043;-69
2023/01/29 09:43:48;;;;;;;28.05;13.90;;;5.00;99.90;;;;;;5100037;28;20058;-69
2023/01/29 09:46:23;;;;;;;27.48;13.77;;;5.00;99.90;;;;;;5101287;28;20031;-69
2023/01/29 09:48:56;;;;;;;29.05;13.48;;;5.00;99.90;;;;;;5100851;28;20074;-69
2023/01/29 09:51:30;;;;;;;25.13;12.23;;;5.00;99.90;;;;;;5102269;28;20578;-69
2023/01/29 09:54:05;;;;;;;27.00;14.13;;;5.10;99.90;;;;;;5076732;28;20035;-69
2023/01/29 09:56:31;;;;;;;30.42;14.90;;;5.00;99.90;;;;;;5089040;28;20039;-68
2023/01/29 09:58:58;;;;;;;33.58;14.63;;;5.00;99.90;;;;;;5107985;28;20076;-68
2023/01/29 10:01:52;;;;;;;29.83;14.48;;;5.00;99.90;;;;;;5104281;28;20039;-68
2023/01/29 10:05:00;;;;;;;30.48;14.50;;;5.10;99.90;;;;;;5104510;28;20044;-68
2023/01/29 10:07:49;;;;;;;32.85;14.27;;;5.00;99.90;;;;;;5078992;28;20043;-69
2023/01/29 10:10:24;;;;;;;27.95;13.95;;;5.00;99.90;;;;;;5099721;28;20452;-69
2023/01/29 10:13:04;;;;;;;28.38;14.13;;;5.00;99.90;;;;;;5106680;28;20112;-69
2023/01/29 10:15:51;;;;;;;29.23;14.07;;;5.00;99.90;;;;;;5100083;28;20464;-69
2023/01/29 10:18:35;;;;;;;31.00;15.57;;;5.00;99.90;;;;;;5096310;28;20042;-69
2023/01/29 10:21:18;;;;;;;29.60;15.02;;;5.00;99.90;;;;;;5096019;28;20051;-68
2023/01/29 10:23:52;;;;;;;32.53;15.52;;;5.00;99.90;;;;;;5092337;28;20066;-69
2023/01/29 10:26:23;;;;;;;30.63;14.02;;;5.00;99.90;;;;;;5101869;28;20040;-69
2023/01/29 10:28:51;;;;;;;28.55;13.38;;;5.00;99.90;;;;;;5100942;28;20512;-69
2023/01/29 10:31:28;;;;;;;34.53;15.82;;;5.00;99.90;;;;;;5098485;28;20036;-69
2023/01/29 10:33:59;;;;;;;27.23;13.98;;;5.00;99.90;;;;;;5097192;28;20389;-69
2023/01/29 10:36:37;;;;;;;30.50;13.95;;;5.00;99.90;;;;;;5096585;28;20493;-69
2023/01/29 10:39:03;;;;;;;30.83;13.23;;;5.00;99.90;;;;;;5096746;28;20117;-69
2023/01/29 10:41:47;;;;;;;31.50;14.27;;;5.10;99.90;;;;;;5099790;28;20031;-68
2023/01/29 10:44:22;;;;;;;31.42;14.63;;;5.10;99.90;;;;;;5095557;28;20059;-69
2023/01/29 10:47:12;;;;;;;29.15;13.30;;;5.10;99.90;;;;;;5104361;28;20050;-69
2023/01/29 10:50:16;;;;;;;28.52;14.43;;;5.20;99.90;;;;;;5076605;28;20032;-69
2023/01/29 10:52:54;;;;;;;30.20;15.20;;;5.20;99.90;;;;;;5081380;28;20101;-69
2023/01/29 10:55:37;;;;;;;28.08;12.60;;;5.20;99.90;;;;;;5095015;28;20040;-68
2023/01/29 10:58:14;;;;;;;25.65;13.00;;;5.30;99.90;;;;;;5102408;28;20241;-69
2023/01/29 11:00:40;;;;;;;28.73;13.88;;;5.30;99.90;;;;;;5091081;28;20121;-69
2023/01/29 11:03:16;;;;;;;26.15;12.73;;;5.30;99.90;;;;;;5087606;28;20626;-68
2023/01/29 11:06:03;;;;;;;27.90;13.60;;;5.40;99.90;;;;;;5103119;28;20048;-69
2023/01/29 11:08:47;;;;;;;24.95;12.00;;;5.30;99.90;;;;;;5089647;28;20379;-69
2023/01/29 11:11:20;;;;;;;23.50;12.07;;;5.40;99.90;;;;;;5100832;28;20480;-69
2023/01/29 11:13:51;;;;;;;24.15;12.63;;;5.30;99.90;;;;;;5099625;28;20486;-69
2023/01/29 11:16:17;;;;;;;28.80;12.73;;;5.40;99.90;;;;;;5101489;28;20391;-69
2023/01/29 11:18:55;;;;;;;25.93;11.33;;;5.40;99.90;;;;;;5099153;28;20048;-69
2023/01/29 11:21:21;;;;;;;23.30;11.80;;;5.50;99.90;;;;;;5104307;28;20474;-69
2023/01/29 11:23:47;;;;;;;26.17;11.68;;;5.50;99.90;;;;;;5100850;28;20114;-69
2023/01/29 11:26:18;;;;;;;25.67;12.73;;;5.50;99.90;;;;;;5097608;28;20123;-69
2023/01/29 11:28:46;;;;;;;32.15;12.88;;;5.50;99.90;;;;;;5100944;28;20453;-69
2023/01/29 11:31:35;;;;;;;27.25;12.10;;;5.50;99.90;;;;;;5097376;28;20074;-69
2023/01/29 11:34:05;;;;;;;24.73;11.15;;;5.60;99.90;;;;;;5082374;28;20032;-69
2023/01/29 11:36:38;;;;;;;25.35;12.23;;;5.50;99.90;;;;;;5101509;28;20128;-69
2023/01/29 11:39:15;;;;;;;22.00;11.35;;;5.50;99.90;;;;;;5097505;28;20070;-69
2023/01/29 11:41:47;;;;;;;25.40;11.55;;;5.60;99.90;;;;;;5090898;28;20066;-69
2023/01/29 11:44:25;;;;;;;21.60;10.93;;;5.50;99.90;;;;;;5098184;28;20063;-69
2023/01/29 11:46:51;;;;;;;22.67;10.38;;;5.50;99.90;;;;;;5096039;28;20490;-68
2023/01/29 11:49:32;;;;;;;20.17;9.83;;;5.60;99.90;;;;;;5102575;28;20038;-69
2023/01/29 11:52:01;;;;;;;20.77;9.68;;;5.60;99.90;;;;;;5094460;28;20055;-69
2023/01/29 11:54:31;;;;;;;21.50;10.48;;;5.70;99.90;;;;;;5094507;28;20060;-69
2023/01/29 11:56:58;;;;;;;23.00;11.70;;;5.80;99.90;;;;;;5102185;28;20036;-69
2023/01/29 11:59:36;;;;;;;21.52;9.60;;;5.80;99.90;;;;;;5105171;28;20044;-69
2023/01/29 12:02:25;;;;;;;20.85;10.55;;;5.90;99.90;;;;;;5094498;28;20565;-69
2023/01/29 12:04:54;;;;;;;23.00;10.50;;;6.00;99.90;;;;;;5096510;28;20036;-69
2023/01/29 12:07:20;;;;;;;21.42;10.00;;;6.00;99.90;;;;;;5098526;28;20028;-69
2023/01/29 12:09:57;;;;;;;24.95;10.90;;;5.90;99.90;;;;;;5094353;28;20065;-69
2023/01/29 12:12:32;;;;;;;18.00;9.13;;;5.90;99.90;;;;;;5101277;28;20541;-69
2023/01/29 12:15:23;;;;;;;21.35;8.98;;;5.90;99.90;;;;;;5103979;28;20551;-69
2023/01/29 12:18:00;;;;;;;21.27;9.43;;;5.80;99.90;;;;;;5093973;28;20062;-69
2023/01/29 12:20:40;;;;;;;18.77;8.82;;;5.90;99.90;;;;;;5101569;28;20083;-69
2023/01/29 12:23:30;;;;;;;19.20;8.80;;;5.90;99.90;;;;;;5101104;28;20050;-69
2023/01/29 12:26:06;;;;;;;14.57;7.78;;;5.90;99.90;;;;;;5087848;28;20425;-69
2023/01/29 12:28:40;;;;;;;19.92;9.18;;;5.90;99.90;;;;;;5104633;28;20024;-69
2023/01/29 12:31:30;;;;;;;19.98;9.07;;;5.90;99.90;;;;;;5098451;28;20046;-69
2023/01/29 12:34:16;;;;;;;16.73;8.27;;;5.90;99.90;;;;;;5105405;28;20036;-69
2023/01/29 12:36:58;;;;;;;18.05;8.13;;;5.90;99.90;;;;;;5098636;28;20044;-69
2023/01/29 12:39:24;;;;;;;19.40;8.73;;;5.90;99.90;;;;;;5103260;28;20118;-69
2023/01/29 12:41:55;;;;;;;22.58;8.80;;;5.90;99.90;;;;;;5096250;28;20039;-69
2023/01/29 12:44:47;;;;;;;21.25;10.18;;;5.90;99.90;;;;;;5107596;28;20050;-69
2023/01/29 12:47:24;;;;;;;17.00;8.77;;;5.90;99.90;;;;;;5105135;28;20472;-69
2023/01/29 12:49:56;;;;;;;18.70;9.85;;;5.80;99.90;;;;;;5105673;28;20092;-69
2023/01/29 12:52:47;;;;;;;21.63;10.30;;;5.90;99.90;;;;;;5103979;28;20435;-69
2023/01/29 12:55:23;;;;;;;23.23;10.52;;;5.90;99.90;;;;;;5096087;28;20460;-69
2023/01/29 12:57:51;;;;;;;23.55;11.27;;;5.80;99.90;;;;;;5103864;28;20077;-69
2023/01/29 13:00:22;;;;;;;20.08;10.15;;;5.80;99.90;;;;;;5100974;28;20585;-69
2023/01/29 13:03:00;;;;;;;26.02;13.27;;;5.80;99.90;;;;;;5093836;28;20678;-69
2023/01/29 13:05:33;;;;;;;21.00;12.32;;;5.80;99.90;;;;;;5102572;28;20088;-69
2023/01/29 13:08:10;;;;;;;22.80;11.80;;;5.60;99.90;;;;;;5098060;28;20063;-69
2023/01/29 13:10:41;;;;;;;26.33;12.00;;;5.70;99.90;;;;;;5087225;28;20039;-69
2023/01/29 13:13:28;;;;;;;19.63;11.18;;;5.60;99.90;;;;;;5103656;28;20088;-69
2023/01/29 13:15:55;;;;;;;18.15;10.73;;;5.60;99.90;;;;;;5104778;28;20493;-69
2023/01/29 13:18:32;;;;;;;;;;;5.50;99.90;;;;;;5105562;28;20363;-69
2023/01/29 13:20:59;;;;;;;21.77;11.30;;;5.50;99.90;;;;;;5098740;28;19916;-69
2023/01/29 13:23:35;;;;;;;22.48;10.98;;;5.60;99.90;;;;;;5107001;27;20043;-69
2023/01/29 13:26:01;;;;;;;25.10;11.77;;;5.40;99.90;;;;;;5096637;28;20067;-69
2023/01/29 13:28:27;;;;;;;25.80;12.25;;;5.40;99.90;;;;;;5101477;28;20067;-69
2023/01/29 13:31:12;;;;;;;22.35;10.60;;;5.40;99.90;;;;;;5088538;22;20072;-72
2023/01/29 13:33:39;;;;;;;22.00;10.70;;;5.40;99.90;;;;;;5018219;28;20045;-72
2023/01/29 13:36:16;;;;;;;24.92;12.10;;;5.30;99.90;;;;;;5025673;28;20045;-72
2023/01/29 13:38:44;;;;;;;22.10;11.45;;;5.40;99.90;;;;;;5022844;28;20562;-72